Hockessin, Delaware
Current Conditions -  °F | °C
As of 6:51 AM on Friday 31 Oct 2014 (Local Time) from KILG Reporting Station
Clear Clear  
Wind Chill: 37°   Ceiling: Unl
Heat Index: 37°   Visibility: 10mi
Dew Point: 33°   Wind: 3mph
Humidity: 86%   Direction: 350°N
Pressure: 30.02"   Gusts: NA
Location:  39.79°N, 75.69°W
Report Text: KILG 311051Z 35003KT 10SM CLR 03/01 A3002 RMK AO2 SLP165 T00280006
Loading
Personal Weather Stations






























Interactive Weather Map
Tropical Storm Tracking
New forecast layout! Learn more

10-Day Weather Forecast

Advertisements
Track Severe Weather on mobile